Time;durP1;ratioP1;P1;durP2;ratioP2;P2;SDS_P1;SDS_P2;PMS_P1;PMS_P2;Temp;Humidity;BMP_temperature;BMP_pressure;BME280_temperature;BME280_humidity;BME280_pressure;Samples;Min_cycle;Max_cycle;Signal;HPM_P1;HPM_P2
2021/11/05 00:02:01;;;;;;;49.55;30.33;;;;;;;9.94;69.72;100078.78;5077262;28;20055;-90
2021/11/05 00:04:28;;;;;;;49.15;31.40;;;;;;;9.93;69.62;100082.69;5067569;28;20060;-89
2021/11/05 00:06:55;;;;;;;51.72;31.88;;;;;;;9.86;70.05;100087.91;5056378;28;20064;-90
2021/11/05 00:09:23;;;;;;;49.33;31.00;;;;;;;10.01;69.66;100087.50;5065432;28;20057;-90
2021/11/05 00:11:50;;;;;;;50.90;31.38;;;;;;;10.04;69.41;100077.72;5074771;28;20063;-90
2021/11/05 00:14:18;;;;;;;48.97;30.73;;;;;;;9.85;70.25;100089.03;5065372;28;20067;-89
2021/11/05 00:16:45;;;;;;;49.67;31.23;;;;;;;9.70;70.42;100085.56;5077446;28;20057;-90
2021/11/05 00:19:16;;;;;;;55.83;33.58;;;;;;;9.85;70.13;100091.81;5072279;28;20060;-89
2021/11/05 00:21:43;;;;;;;53.95;31.77;;;;;;;9.70;70.52;100090.25;5073403;28;20509;-90
2021/11/05 00:24:11;;;;;;;54.47;33.17;;;;;;;9.77;70.67;100100.97;5071883;28;20048;-90
2021/11/05 00:26:38;;;;;;;56.88;34.28;;;;;;;9.68;70.95;100096.16;5059020;28;20506;-89
2021/11/05 00:29:06;;;;;;;53.63;33.92;;;;;;;9.72;70.86;100101.91;5075422;28;20048;-90
2021/11/05 00:31:33;;;;;;;55.08;33.90;;;;;;;9.79;70.80;100113.41;5075490;28;20057;-89
2021/11/05 00:34:00;;;;;;;53.70;32.28;;;;;;;9.88;70.51;100122.63;5076510;28;20056;-89
2021/11/05 00:36:29;;;;;;;55.42;33.35;;;;;;;9.86;70.80;100115.72;5058593;28;20053;-90
2021/11/05 00:38:57;;;;;;;55.67;32.28;;;;;;;9.86;70.91;100112.94;5061628;28;20053;-89
2021/11/05 00:41:24;;;;;;;56.70;33.75;;;;;;;9.79;70.92;100115.38;5076242;28;20182;-90
2021/11/05 00:43:51;;;;;;;59.80;33.72;;;;;;;9.54;72.16;100121.25;5063123;28;20067;-90
2021/11/05 00:46:19;;;;;;;56.70;33.40;;;;;;;9.81;70.97;100121.44;5076083;28;20402;-90
2021/11/05 00:48:46;;;;;;;56.13;32.38;;;;;;;9.89;70.70;100121.50;5075898;28;20048;-90
2021/11/05 00:51:14;;;;;;;57.47;33.70;;;;;;;9.80;70.74;100131.72;5075825;28;20481;-90
2021/11/05 00:53:43;;;;;;;56.33;33.72;;;;;;;9.86;70.88;100129.63;5072911;28;20052;-90
2021/11/05 00:56:10;;;;;;;54.35;32.13;;;;;;;9.92;70.45;100133.94;5057565;28;20053;-91
2021/11/05 00:58:38;;;;;;;58.58;35.00;;;;;;;9.90;70.68;100139.81;5055132;28;20057;-90
2021/11/05 01:01:06;;;;;;;57.75;34.53;;;;;;;9.95;70.83;100138.84;5055463;28;20398;-90
2021/11/05 01:03:33;;;;;;;59.60;34.70;;;;;;;9.95;70.88;100145.25;5055046;28;20057;-90
2021/11/05 01:06:01;;;;;;;57.40;34.88;;;;;;;10.02;70.75;100146.78;5055201;28;20410;-90
2021/11/05 01:08:29;;;;;;;57.25;33.03;;;;;;;10.08;70.67;100154.66;5071100;28;20060;-90
2021/11/05 01:10:59;;;;;;;59.72;35.47;;;;;;;10.14;70.99;100153.38;5075580;28;20060;-90
2021/11/05 01:13:27;;;;;;;60.83;35.17;;;;;;;10.07;71.13;100157.75;5075033;28;20053;-91
2021/11/05 01:15:54;;;;;;;61.42;35.17;;;;;;;10.16;70.69;100153.88;5075095;28;20504;-91
2021/11/05 01:18:22;;;;;;;64.28;35.78;;;;;;;9.96;71.44;100163.56;5056083;28;20449;-90
2021/11/05 01:20:50;;;;;;;59.75;35.47;;;;;;;10.10;70.95;100159.88;5067088;28;20053;-90
2021/11/05 01:23:21;;;;;;;59.50;35.65;;;;;;;10.20;70.66;100164.38;5074365;28;20056;-90
2021/11/05 01:25:49;;;;;;;61.90;36.30;;;;;;;10.24;70.68;100159.81;5062393;28;20057;-90
2021/11/05 01:28:18;;;;;;;60.50;35.25;;;;;;;10.27;70.54;100173.91;5075346;28;20040;-90
2021/11/05 01:30:46;;;;;;;62.10;35.97;;;;;;;10.20;70.56;100169.94;5075646;28;20055;-90
2021/11/05 01:33:13;;;;;;;59.63;35.05;;;;;;;10.20;70.75;100167.97;5075541;28;20441;-90
2021/11/05 01:35:42;;;;;;;59.45;34.30;;;;;;;10.23;70.69;100166.53;5074395;28;20068;-90
2021/11/05 01:38:10;;;;;;;63.70;37.58;;;;;;;10.26;70.63;100182.56;5074670;28;20059;-88
2021/11/05 01:40:39;;;;;;;60.63;34.22;;;;;;;10.33;70.37;100185.75;5073889;28;20060;-88
2021/11/05 01:43:07;;;;;;;62.83;35.47;;;;;;;10.34;70.58;100181.84;5074967;28;20410;-88
2021/11/05 01:45:36;;;;;;;63.75;35.42;;;;;;;10.28;70.63;100188.66;5075556;28;20056;-89
2021/11/05 01:48:04;;;;;;;60.47;35.47;;;;;;;10.11;71.22;100195.75;5062600;28;20053;-88
2021/11/05 01:50:32;;;;;;;59.67;34.50;;;;;;;10.28;70.85;100192.25;5075534;28;20489;-89
2021/11/05 01:53:03;;;;;;;56.72;33.45;;;;;;;10.31;70.77;100193.59;5074554;28;20057;-89
2021/11/05 01:55:30;;;;;;;53.30;32.60;;;;;;;10.23;70.97;100202.72;5075061;28;20052;-89
2021/11/05 01:58:01;;;;;;;58.45;32.30;;;;;;;10.04;71.23;100205.72;5075292;28;20064;-89
2021/11/05 02:00:30;;;;;;;57.40;32.08;;;;;;;10.22;71.09;100209.41;5071727;28;20052;-89
2021/11/05 02:03:00;;;;;;;60.88;32.60;;;;;;;10.25;70.23;100206.81;5073775;28;20077;-89
2021/11/05 02:05:28;;;;;;;53.85;29.85;;;;;;;10.32;70.02;100212.75;5074185;28;20052;-89
2021/11/05 02:07:57;;;;;;;58.72;31.30;;;;;;;10.31;70.02;100216.69;5070683;28;20053;-89
2021/11/05 02:10:27;;;;;;;58.30;31.27;;;;;;;10.40;69.89;100211.19;5063734;28;20052;-89
2021/11/05 02:12:55;;;;;;;57.88;30.77;;;;;;;10.34;69.94;100209.66;5075111;28;20056;-89
2021/11/05 02:15:23;;;;;;;52.88;30.00;;;;;;;10.42;69.69;100219.22;5073817;28;20056;-89
2021/11/05 02:17:51;;;;;;;54.05;29.15;;;;;;;10.30;69.54;100211.44;5072679;28;20417;-90
2021/11/05 02:20:22;;;;;;;52.28;29.40;;;;;;;10.38;69.53;100219.03;5073824;28;20053;-89
2021/11/05 02:22:52;;;;;;;53.67;29.63;;;;;;;10.46;69.54;100229.38;5078860;28;20057;-89
2021/11/05 02:25:21;;;;;;;49.45;28.08;;;;;;;10.39;69.53;100228.19;5061753;28;20523;-89
2021/11/05 02:27:50;;;;;;;47.75;27.58;;;;;;;10.47;69.25;100228.22;5054888;28;20064;-90
2021/11/05 02:30:18;;;;;;;51.42;29.33;;;;;;;10.50;69.35;100235.97;5054494;28;20058;-89
2021/11/05 02:32:46;;;;;;;52.95;29.75;;;;;;;10.50;69.08;100235.16;5055222;28;20060;-89
2021/11/05 02:35:16;;;;;;;50.95;28.15;;;;;;;10.53;69.24;100240.88;5069225;28;20052;-89
2021/11/05 02:37:44;;;;;;;51.08;28.90;;;;;;;10.59;69.00;100249.13;5074505;28;20052;-89
2021/11/05 02:40:13;;;;;;;53.85;30.42;;;;;;;10.60;68.86;100245.19;5074030;28;20067;-89
2021/11/05 02:42:41;;;;;;;54.13;31.30;;;;;;;10.35;69.76;100251.13;5074030;28;20056;-90
2021/11/05 02:45:10;;;;;;;55.03;30.70;;;;;;;10.17;70.25;100243.75;5074371;28;20065;-89
2021/11/05 02:47:38;;;;;;;54.30;31.02;;;;;;;10.33;69.74;100246.97;5065539;28;20053;-89
2021/11/05 02:50:08;;;;;;;59.53;30.63;;;;;;;10.33;69.70;100252.56;5070776;28;20528;-90
2021/11/05 02:52:36;;;;;;;60.42;31.38;;;;;;;10.31;69.82;100258.47;5073670;28;20056;-90
2021/11/05 02:55:10;;;;;;;56.97;31.90;;;;;;;10.26;69.50;100252.97;5074577;28;20044;-90
2021/11/05 02:57:39;;;;;;;57.40;30.70;;;;;;;10.25;69.72;100258.88;5069847;28;20053;-89
2021/11/05 03:00:10;;;;;;;58.33;30.73;;;;;;;10.10;70.36;100262.84;5058758;28;20060;-89
2021/11/05 03:02:45;;;;;;;56.97;31.27;;;;;;;10.05;70.40;100268.56;5066076;28;20057;-90
2021/11/05 03:05:13;;;;;;;55.90;30.25;;;;;;;10.10;70.47;100269.25;5068014;28;20505;-90
2021/11/05 03:07:49;;;;;;;54.70;30.10;;;;;;;10.20;69.82;100281.25;5056130;28;20049;-89
2021/11/05 03:10:19;;;;;;;55.10;28.92;;;;;;;10.22;69.87;100279.81;5052755;28;20048;-89
2021/11/05 03:12:48;;;;;;;;;;;;;;;10.28;69.82;100286.06;5074753;28;20060;-89
2021/11/05 03:15:19;;;;;;;58.90;30.17;;;;;;;10.29;69.60;100290.47;5073141;28;19920;-90
2021/11/05 03:17:53;;;;;;;56.42;30.20;;;;;;;10.38;69.56;100288.63;5053598;28;20052;-90
2021/11/05 03:20:22;;;;;;;57.92;30.38;;;;;;;10.41;69.37;100298.31;5060292;28;20064;-89
2021/11/05 03:22:50;;;;;;;54.88;30.60;;;;;;;10.41;69.44;100304.69;5053069;28;20064;-90
2021/11/05 03:25:18;;;;;;;57.15;30.55;;;;;;;10.46;69.16;100310.16;5065485;28;20052;-90
2021/11/05 03:27:47;;;;;;;55.53;27.52;;;;;;;10.52;69.11;100305.25;5073619;28;20064;-89
2021/11/05 03:30:19;;;;;;;51.00;28.60;;;;;;;10.55;68.92;100304.63;5060470;28;20056;-89
2021/11/05 03:32:47;;;;;;;53.22;29.95;;;;;;;10.59;68.95;100315.97;5074064;28;20064;-90
2021/11/05 03:35:15;;;;;;;54.60;29.45;;;;;;;10.55;68.94;100319.38;5073056;28;20048;-89
2021/11/05 03:37:44;;;;;;;50.60;27.92;;;;;;;10.49;68.61;100323.41;5073361;28;20692;-90
2021/11/05 03:40:17;;;;;;;51.65;27.88;;;;;;;10.46;68.77;100317.69;5068628;28;20053;-90
2021/11/05 03:42:48;;;;;;;53.58;28.10;;;;;;;10.44;68.97;100325.53;5054372;28;20068;-89
2021/11/05 03:45:17;;;;;;;62.90;31.05;;;;;;;10.35;69.14;100331.00;5054422;28;20061;-89
2021/11/05 03:47:45;;;;;;;50.53;27.13;;;;;;;10.15;69.95;100332.31;5056790;28;20148;-90
2021/11/05 03:50:13;;;;;;;56.70;28.63;;;;;;;10.09;69.85;100345.53;5063215;28;20057;-90
2021/11/05 03:52:41;;;;;;;49.10;27.85;;;;;;;10.16;69.50;100343.16;5073398;28;20052;-90
2021/11/05 03:55:09;;;;;;;51.50;28.50;;;;;;;10.22;69.14;100356.94;5073090;28;20060;-90
2021/11/05 03:57:36;;;;;;;47.58;27.38;;;;;;;10.14;69.49;100350.97;5073941;28;20064;-90
2021/11/05 04:00:08;;;;;;;55.45;28.27;;;;;;;10.15;69.53;100351.81;5073712;28;20061;-90
2021/11/05 04:02:37;;;;;;;53.50;28.27;;;;;;;10.16;69.20;100359.84;5070999;28;20494;-90
2021/11/05 04:05:05;;;;;;;55.65;27.88;;;;;;;10.15;69.74;100360.97;5074407;28;20052;-90
2021/11/05 04:07:33;;;;;;;53.63;28.63;;;;;;;10.18;69.90;100367.84;5076332;28;20056;-90
2021/11/05 04:10:00;;;;;;;50.83;26.90;;;;;;;10.27;69.57;100371.56;5076812;28;20052;-90
2021/11/05 04:12:28;;;;;;;49.80;26.52;;;;;;;10.09;69.66;100375.31;5075835;28;20052;-89
2021/11/05 04:14:55;;;;;;;53.08;26.95;;;;;;;10.01;69.98;100378.84;5064902;28;20053;-89
2021/11/05 04:17:23;;;;;;;52.10;27.25;;;;;;;10.06;69.80;100382.34;5072025;28;20149;-89
2021/11/05 04:19:52;;;;;;;49.25;27.10;;;;;;;10.00;69.96;100386.38;5075996;28;20052;-89
2021/11/05 04:22:19;;;;;;;54.13;26.95;;;;;;;10.00;69.99;100397.50;5076128;28;20052;-90
2021/11/05 04:24:47;;;;;;;46.63;26.48;;;;;;;10.15;69.75;100402.72;5075880;28;20504;-90
2021/11/05 04:27:14;;;;;;;52.58;27.95;;;;;;;10.22;69.50;100396.72;5075677;28;20059;-90
2021/11/05 04:29:41;;;;;;;51.03;24.90;;;;;;;10.14;70.00;100405.81;5076656;28;20474;-90
2021/11/05 04:32:09;;;;;;;50.28;27.27;;;;;;;10.20;69.56;100409.31;5053525;28;20521;-90
2021/11/05 04:34:37;;;;;;;44.28;25.40;;;;;;;10.16;69.82;100409.94;5054929;28;20459;-89
2021/11/05 04:37:06;;;;;;;50.28;27.13;;;;;;;10.27;69.76;100416.09;5047669;28;20064;-90
2021/11/05 04:39:33;;;;;;;43.42;23.33;;;;;;;10.34;69.26;100412.91;5036159;28;20064;-89
2021/11/05 04:42:01;;;;;;;47.25;24.58;;;;;;;10.20;69.62;100417.66;5035639;28;20053;-89
2021/11/05 04:44:29;;;;;;;49.25;26.00;;;;;;;9.99;69.96;100420.88;5036286;28;20065;-89
2021/11/05 04:46:57;;;;;;;50.45;26.52;;;;;;;10.14;69.84;100428.91;5051408;28;20494;-89
2021/11/05 04:49:24;;;;;;;52.90;28.15;;;;;;;10.15;69.69;100430.53;5052456;28;20064;-90
2021/11/05 04:51:51;;;;;;;50.60;25.73;;;;;;;10.01;70.08;100440.88;5056421;28;20069;-90
2021/11/05 04:54:22;;;;;;;50.63;24.73;;;;;;;10.09;69.92;100444.91;5055903;28;20418;-90
2021/11/05 04:56:50;;;;;;;45.53;25.50;;;;;;;9.96;69.79;100443.78;5042590;28;20418;-90
2021/11/05 04:59:19;;;;;;;52.83;28.17;;;;;;;9.87;70.41;100446.47;5055888;28;20052;-89
2021/11/05 05:01:46;;;;;;;49.03;24.55;;;;;;;10.06;70.10;100451.09;5044361;28;20140;-89
2021/11/05 05:04:14;;;;;;;53.00;25.67;;;;;;;10.12;69.80;100447.03;5051925;28;20053;-89
2021/11/05 05:06:42;;;;;;;49.88;25.08;;;;;;;10.00;70.28;100447.59;5046580;28;20057;-90
2021/11/05 05:09:11;;;;;;;49.85;25.95;;;;;;;9.96;70.83;100449.34;5054677;28;20053;-89
2021/11/05 05:11:45;;;;;;;54.45;27.40;;;;;;;10.10;70.09;100458.50;5053646;28;20064;-89
2021/11/05 05:14:13;;;;;;;53.90;26.98;;;;;;;9.96;70.28;100471.59;5053368;28;20053;-89
2021/11/05 05:16:41;;;;;;;48.00;24.25;;;;;;;9.99;70.58;100470.97;5054409;28;20053;-89
2021/11/05 05:19:08;;;;;;;51.75;26.25;;;;;;;9.97;70.12;100473.25;5054316;28;20057;-90
2021/11/05 05:21:35;;;;;;;48.28;26.48;;;;;;;10.09;69.87;100473.53;5055530;28;20068;-89
2021/11/05 05:24:04;;;;;;;52.05;25.92;;;;;;;10.09;69.96;100486.63;5055536;28;20048;-89
2021/11/05 05:26:31;;;;;;;46.40;23.88;;;;;;;10.09;69.86;100483.84;5055517;28;20053;-89
2021/11/05 05:29:00;;;;;;;50.28;24.63;;;;;;;10.02;70.07;100487.06;5049178;28;20049;-89
2021/11/05 05:31:28;;;;;;;46.80;24.80;;;;;;;10.08;70.06;100491.38;5050142;28;20056;-89
2021/11/05 05:33:55;;;;;;;45.25;24.15;;;;;;;10.04;70.00;100498.72;5072749;28;20055;-89
2021/11/05 05:36:22;;;;;;;52.65;25.77;;;;;;;9.99;70.28;100501.59;5057777;28;20057;-88
2021/11/05 05:38:50;;;;;;;49.03;25.52;;;;;;;10.03;70.33;100499.81;5057230;28;20057;-89
2021/11/05 05:41:17;;;;;;;52.33;25.25;;;;;;;10.14;69.83;100500.44;5055204;28;20049;-89
2021/11/05 05:43:45;;;;;;;50.78;25.67;;;;;;;9.79;71.07;100505.63;5055429;28;20478;-89
2021/11/05 05:46:14;;;;;;;53.30;25.98;;;;;;;9.91;70.97;100510.66;5055241;28;20417;-89
2021/11/05 05:48:41;;;;;;;52.55;26.73;;;;;;;10.01;70.35;100506.84;5070018;28;20057;-88
2021/11/05 05:51:08;;;;;;;48.78;26.48;;;;;;;9.94;70.78;100515.59;5074836;28;20052;-89
2021/11/05 05:53:36;;;;;;;54.30;27.35;;;;;;;10.07;70.29;100513.97;5069986;28;20053;-89
2021/11/05 05:56:03;;;;;;;52.00;26.23;;;;;;;10.14;70.07;100523.53;5055253;28;20068;-89
2021/11/05 05:58:31;;;;;;;58.28;28.95;;;;;;;9.99;70.22;100526.63;5055745;28;20052;-89
2021/11/05 06:00:58;;;;;;;57.58;28.00;;;;;;;9.91;70.87;100530.13;5065332;28;20064;-89
2021/11/05 06:03:27;;;;;;;56.42;27.85;;;;;;;10.04;70.23;100531.28;5062386;28;20641;-89
2021/11/05 06:05:55;;;;;;;48.33;25.35;;;;;;;10.05;70.18;100542.09;5075147;28;20056;-88
2021/11/05 06:08:22;;;;;;;50.97;25.77;;;;;;;10.06;70.26;100543.75;5059254;28;20053;-88
2021/11/05 06:10:50;;;;;;;49.15;24.70;;;;;;;9.61;71.75;100549.06;5057469;28;20049;-88
2021/11/05 06:13:17;;;;;;;53.63;26.35;;;;;;;9.80;71.18;100557.31;5062861;28;20063;-88
2021/11/05 06:15:44;;;;;;;46.97;23.85;;;;;;;9.87;70.92;100557.75;5059132;28;20089;-88
2021/11/05 06:18:11;;;;;;;50.85;25.73;;;;;;;9.71;71.60;100556.41;5071897;28;20082;-88
2021/11/05 06:20:41;;;;;;;49.72;25.25;;;;;;;9.59;71.96;100556.06;5061817;28;20063;-89
2021/11/05 06:23:08;;;;;;;50.95;25.33;;;;;;;9.73;71.46;100565.25;5065299;28;20059;-89
2021/11/05 06:25:36;;;;;;;47.30;23.20;;;;;;;9.69;71.60;100573.38;5074987;28;20057;-89
2021/11/05 06:28:04;;;;;;;52.60;24.30;;;;;;;9.66;71.76;100579.56;5069970;28;20509;-89
2021/11/05 06:30:31;;;;;;;44.15;23.67;;;;;;;9.82;71.33;100576.50;5066004;28;20056;-89
2021/11/05 06:33:00;;;;;;;50.40;25.50;;;;;;;9.92;70.99;100585.47;5071957;28;20056;-89
2021/11/05 06:35:28;;;;;;;46.30;24.33;;;;;;;9.86;71.04;100597.00;5072489;28;20056;-89
2021/11/05 06:37:57;;;;;;;50.17;23.92;;;;;;;9.86;70.93;100597.00;5070131;28;20526;-88
2021/11/05 06:40:24;;;;;;;48.17;24.23;;;;;;;9.90;70.64;100596.09;5055845;28;20474;-88
2021/11/05 06:42:52;;;;;;;45.25;22.50;;;;;;;9.98;70.69;100605.69;5055759;28;20502;-89
2021/11/05 06:45:20;;;;;;;47.47;23.70;;;;;;;9.88;71.08;100605.88;5054484;28;20060;-89
2021/11/05 06:47:47;;;;;;;41.70;22.63;;;;;;;9.93;70.90;100612.19;5053781;28;20064;-89
2021/11/05 06:50:15;;;;;;;48.65;23.80;;;;;;;9.96;70.69;100616.28;5054091;28;20068;-89
2021/11/05 06:52:45;;;;;;;44.90;23.95;;;;;;;9.82;71.24;100621.00;5067262;28;20489;-90
2021/11/05 06:55:15;;;;;;;44.30;22.48;;;;;;;9.75;71.47;100630.56;5071164;28;20414;-89
2021/11/05 06:57:42;;;;;;;47.72;24.13;;;;;;;9.86;71.66;100627.59;5068333;28;20048;-89
2021/11/05 07:00:12;;;;;;;50.47;23.85;;;;;;;9.91;71.41;100633.06;5073967;28;20421;-88
2021/11/05 07:02:41;;;;;;;45.38;23.95;;;;;;;10.01;71.03;100643.19;5069476;28;20056;-89
2021/11/05 07:05:09;;;;;;;54.22;25.95;;;;;;;9.89;71.17;100643.69;5074450;28;20461;-88
2021/11/05 07:07:37;;;;;;;45.03;23.35;;;;;;;10.01;70.97;100643.19;5073509;28;20060;-89
2021/11/05 07:10:06;;;;;;;43.67;23.25;;;;;;;10.02;71.13;100654.03;5076177;28;20063;-86
2021/11/05 07:12:41;;;;;;;42.63;20.42;;;;;;;9.88;71.30;100661.53;5069002;28;20443;-85
2021/11/05 07:15:10;;;;;;;46.17;24.08;;;;;;;10.08;70.96;100660.31;5067271;28;20053;-83
2021/11/05 07:17:38;;;;;;;45.17;23.88;;;;;;;10.20;70.58;100657.84;5065085;28;20044;-84
2021/11/05 07:20:06;;;;;;;50.08;25.77;;;;;;;10.26;70.58;100658.59;5068228;28;20485;-84
2021/11/05 07:22:36;;;;;;;46.50;22.02;;;;;;;10.10;71.06;100664.47;5074611;28;20068;-85
2021/11/05 07:25:04;;;;;;;47.55;25.05;;;;;;;10.13;71.22;100672.19;5075262;28;20056;-85
2021/11/05 07:27:31;;;;;;;43.92;23.45;;;;;;;10.15;70.99;100671.88;5067830;28;20399;-87
2021/11/05 07:30:00;;;;;;;45.25;24.73;;;;;;;10.33;70.39;100684.09;5073136;28;20060;-86
2021/11/05 07:32:28;;;;;;;46.22;25.63;;;;;;;10.35;70.20;100690.19;5066641;28;20068;-86
2021/11/05 07:34:55;;;;;;;40.03;21.95;;;;;;;10.27;70.65;100693.66;5068647;28;20423;-86
2021/11/05 07:37:23;;;;;;;41.10;20.90;;;;;;;9.99;71.98;100715.03;5075233;28;20394;-85
2021/11/05 07:39:51;;;;;;;43.80;22.30;;;;;;;10.08;71.70;100702.91;5073861;28;20056;-81
2021/11/05 07:42:20;;;;;;;45.92;23.25;;;;;;;10.03;72.20;100704.94;5075812;28;20066;-85
2021/11/05 07:45:09;;;;;;;43.45;21.45;;;;;;;10.05;72.08;100708.25;5071574;28;20045;-90
2021/11/05 07:50:56;;;;;;;42.95;21.60;;;;;;;10.14;71.77;100714.75;5076612;28;20044;-90
2021/11/05 07:53:23;;;;;;;38.05;19.20;;;;;;;10.29;71.27;100708.06;5076698;28;20061;-84
2021/11/05 07:55:51;;;;;;;41.28;20.33;;;;;;;10.46;70.88;100718.69;5071969;28;20052;-82
2021/11/05 07:58:18;;;;;;;38.88;21.13;;;;;;;10.65;70.27;100721.38;5068606;28;20063;-82
2021/11/05 08:00:45;;;;;;;38.17;20.38;;;;;;;10.43;70.44;100724.84;5064583;28;20063;-81
2021/11/05 08:03:13;;;;;;;38.03;20.42;;;;;;;10.44;70.61;100735.69;5065729;28;20533;-84
2021/11/05 08:05:41;;;;;;;33.38;17.98;;;;;;;10.74;69.59;100741.81;5069757;28;20056;-83
2021/11/05 08:08:09;;;;;;;37.83;19.90;;;;;;;10.69;69.52;100744.69;5074953;28;20064;-83
2021/11/05 08:10:37;;;;;;;36.45;19.50;;;;;;;10.71;69.62;100743.25;5070894;28;20056;-82
2021/11/05 08:13:04;;;;;;;35.85;18.23;;;;;;;10.88;68.92;100750.19;5067043;28;20514;-82
2021/11/05 08:15:32;;;;;;;32.72;18.40;;;;;;;10.99;68.43;100756.38;5068422;28;20188;-84
2021/11/05 08:17:59;;;;;;;32.72;18.02;;;;;;;11.09;68.12;100770.09;5070063;28;20063;-82
2021/11/05 08:20:27;;;;;;;35.22;18.00;;;;;;;11.08;67.92;100763.66;5070427;28;20057;-83
2021/11/05 08:22:55;;;;;;;34.22;17.77;;;;;;;11.07;67.99;100775.97;5071536;28;20516;-82
2021/11/05 08:25:28;;;;;;;32.60;19.00;;;;;;;11.03;68.20;100774.13;5070071;28;20063;-82
2021/11/05 08:27:56;;;;;;;37.33;19.38;;;;;;;11.11;67.96;100777.00;5076475;28;20049;-83
2021/11/05 08:30:28;;;;;;;36.45;19.30;;;;;;;11.00;68.16;100772.75;5071237;28;20521;-85
2021/11/05 08:32:58;;;;;;;35.08;19.85;;;;;;;11.18;67.75;100782.16;5071434;28;20056;-82
2021/11/05 08:35:28;;;;;;;36.65;18.75;;;;;;;11.22;67.61;100780.41;5071562;28;20061;-83
2021/11/05 08:37:57;;;;;;;37.30;20.58;;;;;;;11.23;67.40;100782.03;5069620;28;20075;-81
2021/11/05 08:40:24;;;;;;;38.95;20.10;;;;;;;11.15;67.80;100782.78;5078556;28;20057;-82
2021/11/05 08:42:54;;;;;;;39.03;20.50;;;;;;;11.30;67.15;100782.47;5079003;28;20053;-87
2021/11/05 08:45:23;;;;;;;38.38;21.25;;;;;;;11.23;66.92;100789.59;5074908;28;20048;-86
2021/11/05 08:47:50;;;;;;;37.88;19.90;;;;;;;11.30;67.16;100790.81;5071123;28;20060;-87
2021/11/05 08:50:21;;;;;;;34.08;18.98;;;;;;;11.32;66.47;100794.13;5072093;28;20501;-83
2021/11/05 08:52:49;;;;;;;32.65;17.10;;;;;;;11.24;66.96;100800.44;5060355;28;20062;-82
2021/11/05 08:55:17;;;;;;;31.70;18.05;;;;;;;11.13;67.54;100797.03;5068574;28;20123;-83
2021/11/05 08:57:45;;;;;;;31.73;17.13;;;;;;;11.31;66.74;100806.41;5067055;28;20064;-83
2021/11/05 09:00:17;;;;;;;34.45;18.92;;;;;;;11.38;66.38;100815.19;5062581;28;20052;-84
2021/11/05 09:02:46;;;;;;;37.08;18.42;;;;;;;11.23;67.02;100818.28;5070880;28;20048;-81
2021/11/05 09:05:14;;;;;;;35.03;19.17;;;;;;;11.50;66.56;100819.41;5076190;28;20048;-83
2021/11/05 09:07:41;;;;;;;48.05;22.55;;;;;;;11.40;66.98;100828.00;5078364;28;20048;-81
2021/11/05 09:10:10;;;;;;;39.30;20.95;;;;;;;11.64;66.35;100825.78;5070661;28;20064;-82
2021/11/05 09:12:38;;;;;;;36.42;19.95;;;;;;;11.74;65.48;100831.16;5077556;28;20064;-81
2021/11/05 09:15:07;;;;;;;33.50;18.98;;;;;;;11.83;65.41;100833.19;5072398;28;20061;-82
2021/11/05 09:17:38;;;;;;;34.33;19.63;;;;;;;11.88;65.09;100833.91;5074632;28;20056;-82
2021/11/05 09:20:07;;;;;;;33.83;19.70;;;;;;;11.89;65.22;100838.38;5075695;28;20060;-82
2021/11/05 09:22:35;;;;;;;33.55;18.65;;;;;;;11.79;65.67;100844.16;5077696;28;20059;-84
2021/11/05 09:25:05;;;;;;;34.10;19.00;;;;;;;12.04;64.53;100853.13;5075373;28;20053;-83
2021/11/05 09:27:33;;;;;;;33.38;18.00;;;;;;;11.87;64.91;100850.97;5076482;28;20481;-81
2021/11/05 09:30:00;;;;;;;29.23;16.55;;;;;;;12.06;64.18;100854.47;5074992;28;20063;-80
2021/11/05 09:32:27;;;;;;;32.05;16.88;;;;;;;11.95;64.01;100853.06;5074809;28;20056;-81
2021/11/05 09:34:56;;;;;;;29.10;16.80;;;;;;;11.71;65.02;100859.66;5076645;28;20409;-82
2021/11/05 09:37:24;;;;;;;32.55;17.50;;;;;;;11.93;64.28;100867.31;5077818;28;20390;-82
2021/11/05 09:39:51;;;;;;;27.88;16.80;;;;;;;11.93;64.65;100866.50;5074663;28;20056;-81
2021/11/05 09:42:20;;;;;;;30.33;16.60;;;;;;;11.94;64.71;100868.97;5076415;28;20493;-82
2021/11/05 09:44:47;;;;;;;26.27;15.57;;;;;;;12.00;64.15;100877.22;5074010;28;20056;-83
2021/11/05 09:47:15;;;;;;;25.52;15.00;;;;;;;11.92;63.90;100878.78;5057620;28;20071;-82
2021/11/05 09:49:42;;;;;;;29.52;16.65;;;;;;;11.47;66.01;100878.63;5066617;28;20056;-83
2021/11/05 09:52:11;;;;;;;28.83;16.33;;;;;;;11.65;65.48;100882.41;5073848;28;20048;-82
2021/11/05 09:54:39;;;;;;;29.67;16.63;;;;;;;11.84;65.01;100897.06;5072077;28;20064;-83
2021/11/05 09:57:07;;;;;;;27.98;15.75;;;;;;;12.06;64.32;100892.72;5076619;28;20056;-84
2021/11/05 09:59:36;;;;;;;30.67;17.10;;;;;;;11.71;64.88;100901.53;5075988;28;20052;-83
2021/11/05 10:02:04;;;;;;;29.95;15.82;;;;;;;11.83;64.91;100905.78;5066686;28;20484;-84
2021/11/05 10:04:32;;;;;;;32.63;16.38;;;;;;;11.51;66.05;100901.97;5067109;28;20060;-84
2021/11/05 10:07:02;;;;;;;27.08;16.48;;;;;;;11.63;65.92;100904.22;5069269;28;20064;-83
2021/11/05 10:09:39;;;;;;;27.52;15.52;;;;;;;11.73;65.28;100901.22;5067994;28;20056;-84
2021/11/05 10:12:09;;;;;;;27.33;16.02;;;;;;;11.52;65.95;100912.81;5062311;28;20056;-85
2021/11/05 10:14:37;;;;;;;25.13;14.98;;;;;;;11.87;65.16;100909.59;5065642;28;20068;-83
2021/11/05 10:17:08;;;;;;;28.13;15.38;;;;;;;12.05;64.24;100908.63;5069306;28;20052;-82
2021/11/05 10:19:50;;;;;;;25.67;16.00;;;;;;;12.09;64.05;100908.84;5075092;28;20057;-84
2021/11/05 10:22:35;;;;;;;29.48;15.98;;;;;;;11.76;65.31;100909.00;5070445;28;20060;-82
2021/11/05 10:25:24;;;;;;;24.08;14.55;;;;;;;11.87;64.81;100918.78;5072042;28;20056;-82
2021/11/05 10:28:08;;;;;;;28.00;15.20;;;;;;;11.98;64.34;100911.03;5071734;28;20060;-85
2021/11/05 10:30:39;;;;;;;23.42;13.93;;;;;;;12.42;63.41;100923.44;5062612;28;20075;-82
2021/11/05 10:33:08;;;;;;;25.95;14.90;;;;;;;12.88;61.41;100927.88;5064006;28;20053;-82
2021/11/05 10:35:38;;;;;;;22.33;13.13;;;;;;;13.23;60.87;100930.91;5075656;28;20493;-82
2021/11/05 10:38:09;;;;;;;23.77;13.40;;;;;;;13.52;60.48;100923.97;5074995;28;20060;-84
2021/11/05 10:40:44;;;;;;;26.70;13.52;;;;;;;13.57;59.52;100930.25;5077976;28;20060;-83
2021/11/05 10:43:14;;;;;;;24.05;14.52;;;;;;;13.55;59.66;100921.34;5076445;28;20277;-83
2021/11/05 10:45:42;;;;;;;22.95;14.20;;;;;;;13.39;59.99;100925.72;5075971;28;20052;-82
2021/11/05 10:48:12;;;;;;;26.35;15.15;;;;;;;13.44;60.06;100936.78;5072878;28;20056;-85
2021/11/05 10:50:49;;;;;;;23.40;13.25;;;;;;;13.90;58.98;100926.22;5064801;28;20049;-83
2021/11/05 10:53:20;;;;;;;22.20;12.52;;;;;;;13.97;58.31;100932.19;5059906;28;20654;-81
2021/11/05 10:55:51;;;;;;;21.08;12.45;;;;;;;13.65;59.14;100928.66;5066302;28;20057;-86
2021/11/05 10:58:23;;;;;;;21.77;12.63;;;;;;;13.96;58.23;100930.53;5059880;28;20064;-86
2021/11/05 11:00:52;;;;;;;18.23;11.30;;;;;;;14.52;56.47;100930.75;5073634;28;20435;-84
2021/11/05 11:03:25;;;;;;;19.23;11.55;;;;;;;14.19;56.97;100926.47;5068370;28;20410;-84
2021/11/05 11:05:53;;;;;;;19.98;11.95;;;;;;;14.45;56.97;100925.66;5063636;28;20432;-86
2021/11/05 11:08:23;;;;;;;18.92;11.10;;;;;;;15.12;55.27;100949.53;5070393;28;20052;-82
2021/11/05 11:10:55;;;;;;;16.48;10.95;;;;;;;15.39;54.66;100937.06;5073208;28;20052;-81
2021/11/05 11:13:31;;;;;;;14.57;9.93;;;;;;;15.58;54.32;100935.81;5076671;28;20506;-81
2021/11/05 11:16:01;;;;;;;23.20;12.32;;;;;;;15.69;54.06;100934.31;5071029;28;20435;-82
2021/11/05 11:18:28;;;;;;;;;;;;;;;15.80;52.14;100938.38;5076771;28;20434;-82
2021/11/05 11:20:56;;;;;;;19.35;11.20;;;;;;;16.59;50.94;100938.69;5073253;28;20293;-83
2021/11/05 11:23:24;;;;;;;15.98;10.55;;;;;;;17.85;48.73;100943.97;5080276;28;20056;-83